sensor_id;sensor_type;location;lat;lon;timestamp;P1;durP1;ratioP1;P2;durP2;ratioP2
69678;SDS011;56915;52.046;4.854;2022-08-11T00:01:21;4.25;;;3.00;;
69678;SDS011;56915;52.046;4.854;2022-08-11T00:03:54;5.70;;;2.80;;
69678;SDS011;56915;52.046;4.854;2022-08-11T00:06:28;4.78;;;2.80;;
69678;SDS011;56915;52.046;4.854;2022-08-11T00:08:57;3.95;;;2.92;;
69678;SDS011;56915;52.046;4.854;2022-08-11T00:11:31;3.72;;;2.85;;
69678;SDS011;56915;52.046;4.854;2022-08-11T00:14:18;4.05;;;3.10;;
69678;SDS011;56915;52.046;4.854;2022-08-11T00:16:54;3.30;;;2.67;;
69678;SDS011;56915;52.046;4.854;2022-08-11T00:19:33;4.80;;;2.90;;
69678;SDS011;56915;52.046;4.854;2022-08-11T00:22:27;4.22;;;2.92;;
69678;SDS011;56915;52.046;4.854;2022-08-11T00:24:55;4.40;;;3.00;;
69678;SDS011;56915;52.046;4.854;2022-08-11T00:27:31;6.07;;;2.90;;
69678;SDS011;56915;52.046;4.854;2022-08-11T00:29:59;3.30;;;2.70;;
69678;SDS011;56915;52.046;4.854;2022-08-11T00:32:27;4.57;;;2.92;;
69678;SDS011;56915;52.046;4.854;2022-08-11T00:34:55;5.43;;;3.08;;
69678;SDS011;56915;52.046;4.854;2022-08-11T00:37:48;3.72;;;2.92;;
69678;SDS011;56915;52.046;4.854;2022-08-11T00:40:40;4.15;;;2.88;;
69678;SDS011;56915;52.046;4.854;2022-08-11T00:48:58;3.80;;;3.20;;
69678;SDS011;56915;52.046;4.854;2022-08-11T01:05:36;4.20;;;3.13;;
69678;SDS011;56915;52.046;4.854;2022-08-11T01:29:17;3.97;;;2.80;;
69678;SDS011;56915;52.046;4.854;2022-08-11T01:47:27;5.25;;;3.10;;
69678;SDS011;56915;52.046;4.854;2022-08-11T01:53:27;4.60;;;3.00;;
69678;SDS011;56915;52.046;4.854;2022-08-11T02:13:33;5.68;;;3.25;;
69678;SDS011;56915;52.046;4.854;2022-08-11T02:16:20;4.28;;;3.20;;
69678;SDS011;56915;52.046;4.854;2022-08-11T02:18:59;4.13;;;3.20;;
69678;SDS011;56915;52.046;4.854;2022-08-11T02:25:09;5.65;;;3.60;;
69678;SDS011;56915;52.046;4.854;2022-08-11T02:28:06;4.97;;;3.33;;
69678;SDS011;56915;52.046;4.854;2022-08-11T02:30:50;6.68;;;3.33;;
69678;SDS011;56915;52.046;4.854;2022-08-11T02:37:07;4.40;;;3.22;;
69678;SDS011;56915;52.046;4.854;2022-08-11T02:39:55;4.20;;;3.20;;
69678;SDS011;56915;52.046;4.854;2022-08-11T02:42:30;4.40;;;3.50;;
69678;SDS011;56915;52.046;4.854;2022-08-11T02:51:41;8.43;;;3.40;;
69678;SDS011;56915;52.046;4.854;2022-08-11T02:59:56;5.13;;;3.35;;
69678;SDS011;56915;52.046;4.854;2022-08-11T03:05:52;4.60;;;3.50;;
69678;SDS011;56915;52.046;4.854;2022-08-11T03:31:17;4.30;;;3.42;;
69678;SDS011;56915;52.046;4.854;2022-08-11T04:10:48;5.93;;;4.00;;
69678;SDS011;56915;52.046;4.854;2022-08-11T04:19:20;5.88;;;3.90;;
69678;SDS011;56915;52.046;4.854;2022-08-11T04:27:46;7.45;;;4.00;;
69678;SDS011;56915;52.046;4.854;2022-08-11T04:36:36;5.77;;;4.20;;
69678;SDS011;56915;52.046;4.854;2022-08-11T04:49:33;6.57;;;4.07;;
69678;SDS011;56915;52.046;4.854;2022-08-11T05:13:29;6.20;;;4.22;;
69678;SDS011;56915;52.046;4.854;2022-08-11T05:16:18;6.47;;;3.90;;
69678;SDS011;56915;52.046;4.854;2022-08-11T05:19:14;6.32;;;4.20;;
69678;SDS011;56915;52.046;4.854;2022-08-11T05:22:01;6.33;;;4.43;;
69678;SDS011;56915;52.046;4.854;2022-08-11T05:24:51;5.85;;;4.10;;
69678;SDS011;56915;52.046;4.854;2022-08-11T05:28:15;5.13;;;3.80;;
69678;SDS011;56915;52.046;4.854;2022-08-11T05:31:14;5.32;;;3.88;;
69678;SDS011;56915;52.046;4.854;2022-08-11T05:34:06;5.63;;;3.88;;
69678;SDS011;56915;52.046;4.854;2022-08-11T05:37:03;6.37;;;3.97;;
69678;SDS011;56915;52.046;4.854;2022-08-11T05:39:52;6.57;;;3.90;;
69678;SDS011;56915;52.046;4.854;2022-08-11T05:42:47;5.18;;;4.00;;
69678;SDS011;56915;52.046;4.854;2022-08-11T05:45:34;7.03;;;3.92;;
69678;SDS011;56915;52.046;4.854;2022-08-11T05:48:32;5.15;;;3.72;;
69678;SDS011;56915;52.046;4.854;2022-08-11T05:51:19;5.47;;;3.90;;
69678;SDS011;56915;52.046;4.854;2022-08-11T05:54:20;5.32;;;3.92;;
69678;SDS011;56915;52.046;4.854;2022-08-11T05:57:18;4.85;;;3.63;;
69678;SDS011;56915;52.046;4.854;2022-08-11T06:00:07;5.82;;;3.85;;
69678;SDS011;56915;52.046;4.854;2022-08-11T06:02:45;5.85;;;4.18;;
69678;SDS011;56915;52.046;4.854;2022-08-11T06:05:20;5.73;;;4.10;;
69678;SDS011;56915;52.046;4.854;2022-08-11T06:07:51;6.85;;;3.90;;
69678;SDS011;56915;52.046;4.854;2022-08-11T06:10:29;3.97;;;3.50;;
69678;SDS011;56915;52.046;4.854;2022-08-11T06:12:59;5.65;;;3.70;;
69678;SDS011;56915;52.046;4.854;2022-08-11T06:15:28;6.57;;;3.88;;
69678;SDS011;56915;52.046;4.854;2022-08-11T06:17:57;5.23;;;3.60;;
69678;SDS011;56915;52.046;4.854;2022-08-11T06:20:28;6.30;;;3.47;;
69678;SDS011;56915;52.046;4.854;2022-08-11T06:23:03;4.47;;;3.58;;
69678;SDS011;56915;52.046;4.854;2022-08-11T06:25:34;6.70;;;3.70;;
69678;SDS011;56915;52.046;4.854;2022-08-11T06:28:02;5.50;;;3.90;;
69678;SDS011;56915;52.046;4.854;2022-08-11T06:30:35;5.37;;;3.50;;
69678;SDS011;56915;52.046;4.854;2022-08-11T06:33:07;5.78;;;3.70;;
69678;SDS011;56915;52.046;4.854;2022-08-11T06:35:58;5.90;;;3.83;;
69678;SDS011;56915;52.046;4.854;2022-08-11T06:41:26;5.90;;;4.40;;
69678;SDS011;56915;52.046;4.854;2022-08-11T06:44:14;5.80;;;3.97;;
69678;SDS011;56915;52.046;4.854;2022-08-11T06:46:49;6.28;;;3.92;;
69678;SDS011;56915;52.046;4.854;2022-08-11T06:49:19;5.20;;;3.97;;
69678;SDS011;56915;52.046;4.854;2022-08-11T06:52:10;5.88;;;3.95;;
69678;SDS011;56915;52.046;4.854;2022-08-11T06:55:00;4.88;;;3.50;;
69678;SDS011;56915;52.046;4.854;2022-08-11T06:57:57;4.83;;;3.60;;
69678;SDS011;56915;52.046;4.854;2022-08-11T07:00:43;5.65;;;3.40;;
69678;SDS011;56915;52.046;4.854;2022-08-11T07:03:15;4.22;;;3.10;;
69678;SDS011;56915;52.046;4.854;2022-08-11T07:05:49;5.43;;;3.28;;
69678;SDS011;56915;52.046;4.854;2022-08-11T07:11:26;5.27;;;3.00;;
69678;SDS011;56915;52.046;4.854;2022-08-11T07:14:34;3.95;;;3.08;;
69678;SDS011;56915;52.046;4.854;2022-08-11T07:17:26;4.60;;;3.28;;
69678;SDS011;56915;52.046;4.854;2022-08-11T07:19:58;4.03;;;2.90;;
69678;SDS011;56915;52.046;4.854;2022-08-11T07:22:54;8.70;;;2.92;;
69678;SDS011;56915;52.046;4.854;2022-08-11T07:25:42;6.23;;;2.87;;
69678;SDS011;56915;52.046;4.854;2022-08-11T07:28:30;5.75;;;3.03;;
69678;SDS011;56915;52.046;4.854;2022-08-11T07:31:42;5.63;;;2.72;;
69678;SDS011;56915;52.046;4.854;2022-08-11T07:34:24;5.18;;;2.90;;
69678;SDS011;56915;52.046;4.854;2022-08-11T07:36:57;3.40;;;2.83;;
69678;SDS011;56915;52.046;4.854;2022-08-11T07:39:26;5.83;;;2.80;;
69678;SDS011;56915;52.046;4.854;2022-08-11T07:41:57;3.88;;;2.58;;
69678;SDS011;56915;52.046;4.854;2022-08-11T07:44:25;4.40;;;2.53;;
69678;SDS011;56915;52.046;4.854;2022-08-11T07:47:00;4.57;;;2.58;;
69678;SDS011;56915;52.046;4.854;2022-08-11T07:49:45;3.40;;;2.60;;
69678;SDS011;56915;52.046;4.854;2022-08-11T07:52:34;3.03;;;2.43;;
69678;SDS011;56915;52.046;4.854;2022-08-11T07:55:07;4.43;;;2.50;;
69678;SDS011;56915;52.046;4.854;2022-08-11T07:57:39;3.65;;;2.65;;
69678;SDS011;56915;52.046;4.854;2022-08-11T08:00:46;3.33;;;2.40;;
69678;SDS011;56915;52.046;4.854;2022-08-11T08:03:46;3.58;;;2.38;;
69678;SDS011;56915;52.046;4.854;2022-08-11T08:06:34;4.20;;;2.50;;
69678;SDS011;56915;52.046;4.854;2022-08-11T08:09:21;4.60;;;2.45;;
69678;SDS011;56915;52.046;4.854;2022-08-11T08:12:08;5.47;;;2.50;;
69678;SDS011;56915;52.046;4.854;2022-08-11T08:14:55;3.20;;;2.30;;
69678;SDS011;56915;52.046;4.854;2022-08-11T08:17:42;3.20;;;2.53;;
69678;SDS011;56915;52.046;4.854;2022-08-11T08:20:44;4.40;;;2.40;;
69678;SDS011;56915;52.046;4.854;2022-08-11T08:23:12;5.25;;;2.60;;
69678;SDS011;56915;52.046;4.854;2022-08-11T08:25:41;6.43;;;2.38;;
69678;SDS011;56915;52.046;4.854;2022-08-11T08:28:11;4.78;;;2.47;;
69678;SDS011;56915;52.046;4.854;2022-08-11T08:30:41;4.18;;;2.63;;
69678;SDS011;56915;52.046;4.854;2022-08-11T08:35:54;5.65;;;2.55;;
69678;SDS011;56915;52.046;4.854;2022-08-11T08:38:40;3.03;;;2.30;;
69678;SDS011;56915;52.046;4.854;2022-08-11T08:41:12;4.70;;;2.47;;
69678;SDS011;56915;52.046;4.854;2022-08-11T08:43:50;4.70;;;2.60;;
69678;SDS011;56915;52.046;4.854;2022-08-11T08:46:43;4.50;;;2.40;;
69678;SDS011;56915;52.046;4.854;2022-08-11T08:49:15;6.82;;;2.47;;
69678;SDS011;56915;52.046;4.854;2022-08-11T08:51:44;6.53;;;2.75;;
69678;SDS011;56915;52.046;4.854;2022-08-11T08:54:37;2.90;;;2.58;;
69678;SDS011;56915;52.046;4.854;2022-08-11T08:57:08;4.30;;;2.45;;
69678;SDS011;56915;52.046;4.854;2022-08-11T08:59:40;6.53;;;2.90;;
69678;SDS011;56915;52.046;4.854;2022-08-11T09:02:15;2.90;;;2.60;;
69678;SDS011;56915;52.046;4.854;2022-08-11T09:05:00;4.47;;;2.80;;
69678;SDS011;56915;52.046;4.854;2022-08-11T09:07:30;5.22;;;2.70;;
69678;SDS011;56915;52.046;4.854;2022-08-11T09:10:04;3.53;;;3.10;;
69678;SDS011;56915;52.046;4.854;2022-08-11T09:12:33;3.10;;;2.80;;
69678;SDS011;56915;52.046;4.854;2022-08-11T09:15:04;3.63;;;3.05;;
69678;SDS011;56915;52.046;4.854;2022-08-11T09:17:47;3.38;;;2.60;;
69678;SDS011;56915;52.046;4.854;2022-08-11T09:22:54;3.05;;;2.70;;
69678;SDS011;56915;52.046;4.854;2022-08-11T09:26:01;3.20;;;2.90;;
69678;SDS011;56915;52.046;4.854;2022-08-11T09:28:55;3.15;;;2.85;;
69678;SDS011;56915;52.046;4.854;2022-08-11T09:31:24;3.65;;;2.88;;
69678;SDS011;56915;52.046;4.854;2022-08-11T09:33:55;4.20;;;2.65;;
69678;SDS011;56915;52.046;4.854;2022-08-11T09:36:23;4.50;;;3.00;;
69678;SDS011;56915;52.046;4.854;2022-08-11T09:39:08;3.90;;;2.93;;
69678;SDS011;56915;52.046;4.854;2022-08-11T09:41:57;6.43;;;2.80;;
69678;SDS011;56915;52.046;4.854;2022-08-11T09:44:32;5.18;;;3.10;;
69678;SDS011;56915;52.046;4.854;2022-08-11T09:47:17;4.10;;;2.90;;
69678;SDS011;56915;52.046;4.854;2022-08-11T09:49:49;4.97;;;3.00;;
69678;SDS011;56915;52.046;4.854;2022-08-11T09:52:24;4.80;;;2.87;;
69678;SDS011;56915;52.046;4.854;2022-08-11T09:54:52;3.15;;;2.80;;
69678;SDS011;56915;52.046;4.854;2022-08-11T09:57:20;3.30;;;3.00;;
69678;SDS011;56915;52.046;4.854;2022-08-11T10:00:10;4.70;;;3.00;;
69678;SDS011;56915;52.046;4.854;2022-08-11T10:02:41;3.78;;;2.72;;
69678;SDS011;56915;52.046;4.854;2022-08-11T10:05:14;3.30;;;2.80;;
69678;SDS011;56915;52.046;4.854;2022-08-11T10:08:03;2.92;;;2.60;;
69678;SDS011;56915;52.046;4.854;2022-08-11T10:10:36;4.50;;;3.17;;
69678;SDS011;56915;52.046;4.854;2022-08-11T10:13:09;3.33;;;2.90;;
69678;SDS011;56915;52.046;4.854;2022-08-11T10:16:05;3.10;;;2.80;;
69678;SDS011;56915;52.046;4.854;2022-08-11T10:18:41;3.63;;;2.70;;
69678;SDS011;56915;52.046;4.854;2022-08-11T10:21:22;3.83;;;2.83;;
69678;SDS011;56915;52.046;4.854;2022-08-11T10:23:51;4.22;;;2.72;;
69678;SDS011;56915;52.046;4.854;2022-08-11T10:26:36;3.42;;;3.13;;
69678;SDS011;56915;52.046;4.854;2022-08-11T10:29:16;3.53;;;3.00;;
69678;SDS011;56915;52.046;4.854;2022-08-11T10:32:16;2.97;;;2.67;;
69678;SDS011;56915;52.046;4.854;2022-08-11T10:35:24;4.25;;;2.78;;
69678;SDS011;56915;52.046;4.854;2022-08-11T10:37:52;3.15;;;2.70;;
69678;SDS011;56915;52.046;4.854;2022-08-11T10:40:34;6.75;;;2.88;;
69678;SDS011;56915;52.046;4.854;2022-08-11T10:43:05;6.32;;;2.83;;
69678;SDS011;56915;52.046;4.854;2022-08-11T10:45:39;2.87;;;2.60;;
69678;SDS011;56915;52.046;4.854;2022-08-11T10:48:30;3.30;;;3.00;;
69678;SDS011;56915;52.046;4.854;2022-08-11T10:51:03;2.90;;;2.70;;
69678;SDS011;56915;52.046;4.854;2022-08-11T10:54:02;5.97;;;2.35;;
69678;SDS011;56915;52.046;4.854;2022-08-11T10:56:48;6.30;;;2.63;;
69678;SDS011;56915;52.046;4.854;2022-08-11T10:59:34;3.13;;;2.83;;
69678;SDS011;56915;52.046;4.854;2022-08-11T11:02:01;10.15;;;3.60;;
69678;SDS011;56915;52.046;4.854;2022-08-11T11:05:15;3.13;;;2.70;;
69678;SDS011;56915;52.046;4.854;2022-08-11T11:07:22;2.50;;;2.30;;
69678;SDS011;56915;52.046;4.854;2022-08-11T11:09:56;4.03;;;2.28;;
69678;SDS011;56915;52.046;4.854;2022-08-11T11:12:29;2.30;;;2.10;;
69678;SDS011;56915;52.046;4.854;2022-08-11T11:15:29;4.47;;;2.40;;
69678;SDS011;56915;52.046;4.854;2022-08-11T11:18:26;2.78;;;2.50;;
69678;SDS011;56915;52.046;4.854;2022-08-11T11:20:56;2.35;;;2.15;;
69678;SDS011;56915;52.046;4.854;2022-08-11T11:26:10;3.50;;;2.47;;
69678;SDS011;56915;52.046;4.854;2022-08-11T11:31:52;2.72;;;2.53;;
69678;SDS011;56915;52.046;4.854;2022-08-11T11:37:20;2.60;;;2.40;;
69678;SDS011;56915;52.046;4.854;2022-08-11T11:39:49;3.23;;;2.20;;
69678;SDS011;56915;52.046;4.854;2022-08-11T11:42:16;4.22;;;2.70;;
69678;SDS011;56915;52.046;4.854;2022-08-11T11:44:44;5.82;;;2.38;;
69678;SDS011;56915;52.046;4.854;2022-08-11T11:47:13;2.42;;;2.22;;
69678;SDS011;56915;52.046;4.854;2022-08-11T11:49:47;2.80;;;2.60;;
69678;SDS011;56915;52.046;4.854;2022-08-11T11:52:15;3.67;;;2.80;;
69678;SDS011;56915;52.046;4.854;2022-08-11T11:54:45;8.50;;;2.58;;
69678;SDS011;56915;52.046;4.854;2022-08-11T11:57:16;3.53;;;2.60;;
69678;SDS011;56915;52.046;4.854;2022-08-11T12:00:07;3.88;;;2.95;;
69678;SDS011;56915;52.046;4.854;2022-08-11T12:02:59;3.90;;;2.83;;
69678;SDS011;56915;52.046;4.854;2022-08-11T12:05:30;4.33;;;2.70;;
69678;SDS011;56915;52.046;4.854;2022-08-11T12:08:00;3.78;;;2.80;;
69678;SDS011;56915;52.046;4.854;2022-08-11T12:10:48;2.60;;;2.40;;
69678;SDS011;56915;52.046;4.854;2022-08-11T12:13:38;3.90;;;2.78;;
69678;SDS011;56915;52.046;4.854;2022-08-11T12:16:10;3.55;;;2.80;;
69678;SDS011;56915;52.046;4.854;2022-08-11T12:18:59;3.60;;;2.97;;
69678;SDS011;56915;52.046;4.854;2022-08-11T12:21:27;3.22;;;2.60;;
69678;SDS011;56915;52.046;4.854;2022-08-11T12:23:55;2.75;;;2.55;;
69678;SDS011;56915;52.046;4.854;2022-08-11T12:26:42;3.22;;;2.72;;
69678;SDS011;56915;52.046;4.854;2022-08-11T12:29:42;3.88;;;2.80;;
69678;SDS011;56915;52.046;4.854;2022-08-11T12:32:19;3.53;;;2.47;;
69678;SDS011;56915;52.046;4.854;2022-08-11T12:37:21;2.97;;;2.70;;
69678;SDS011;56915;52.046;4.854;2022-08-11T12:39:56;3.40;;;2.80;;
69678;SDS011;56915;52.046;4.854;2022-08-11T12:43:15;3.35;;;2.67;;
69678;SDS011;56915;52.046;4.854;2022-08-11T12:46:08;2.60;;;2.40;;
69678;SDS011;56915;52.046;4.854;2022-08-11T12:48:42;2.53;;;2.33;;
69678;SDS011;56915;52.046;4.854;2022-08-11T12:51:32;3.00;;;2.50;;
69678;SDS011;56915;52.046;4.854;2022-08-11T12:54:50;3.65;;;2.88;;
69678;SDS011;56915;52.046;4.854;2022-08-11T13:00:21;2.90;;;2.60;;
69678;SDS011;56915;52.046;4.854;2022-08-11T13:03:09;2.70;;;2.35;;
69678;SDS011;56915;52.046;4.854;2022-08-11T13:05:57;3.85;;;3.00;;
69678;SDS011;56915;52.046;4.854;2022-08-11T13:08:26;2.80;;;2.60;;
69678;SDS011;56915;52.046;4.854;2022-08-11T13:10:55;4.18;;;2.75;;
69678;SDS011;56915;52.046;4.854;2022-08-11T13:13:43;3.53;;;2.60;;
69678;SDS011;56915;52.046;4.854;2022-08-11T13:16:23;2.83;;;2.63;;
69678;SDS011;56915;52.046;4.854;2022-08-11T13:18:54;2.95;;;2.65;;
69678;SDS011;56915;52.046;4.854;2022-08-11T13:21:22;3.28;;;2.97;;
69678;SDS011;56915;52.046;4.854;2022-08-11T13:23:51;3.30;;;3.00;;
69678;SDS011;56915;52.046;4.854;2022-08-11T13:26:34;3.13;;;2.50;;
69678;SDS011;56915;52.046;4.854;2022-08-11T13:29:23;3.25;;;2.80;;
69678;SDS011;56915;52.046;4.854;2022-08-11T13:31:53;3.20;;;2.47;;
69678;SDS011;56915;52.046;4.854;2022-08-11T13:34:21;3.72;;;2.58;;
69678;SDS011;56915;52.046;4.854;2022-08-11T13:36:53;2.72;;;2.53;;
69678;SDS011;56915;52.046;4.854;2022-08-11T13:39:22;3.33;;;2.63;;
69678;SDS011;56915;52.046;4.854;2022-08-11T13:41:52;2.83;;;2.63;;
69678;SDS011;56915;52.046;4.854;2022-08-11T13:44:23;3.15;;;2.42;;
69678;SDS011;56915;52.046;4.854;2022-08-11T13:47:01;3.10;;;2.60;;
69678;SDS011;56915;52.046;4.854;2022-08-11T13:49:30;3.53;;;2.85;;
69678;SDS011;56915;52.046;4.854;2022-08-11T13:52:00;5.77;;;2.77;;
69678;SDS011;56915;52.046;4.854;2022-08-11T13:54:29;3.40;;;2.72;;
69678;SDS011;56915;52.046;4.854;2022-08-11T13:57:05;3.35;;;2.40;;
69678;SDS011;56915;52.046;4.854;2022-08-11T13:59:54;6.07;;;2.90;;
69678;SDS011;56915;52.046;4.854;2022-08-11T14:02:41;3.03;;;2.80;;
69678;SDS011;56915;52.046;4.854;2022-08-11T14:05:11;2.90;;;2.60;;
69678;SDS011;56915;52.046;4.854;2022-08-11T14:07:45;3.47;;;2.90;;
69678;SDS011;56915;52.046;4.854;2022-08-11T14:10:19;5.55;;;2.60;;
69678;SDS011;56915;52.046;4.854;2022-08-11T14:12:56;3.10;;;2.80;;
69678;SDS011;56915;52.046;4.854;2022-08-11T14:15:45;3.10;;;2.80;;
69678;SDS011;56915;52.046;4.854;2022-08-11T14:20:53;3.50;;;2.70;;
69678;SDS011;56915;52.046;4.854;2022-08-11T14:23:45;4.78;;;2.85;;
69678;SDS011;56915;52.046;4.854;2022-08-11T14:26:20;6.22;;;3.28;;
69678;SDS011;56915;52.046;4.854;2022-08-11T14:28:56;3.78;;;2.47;;
69678;SDS011;56915;52.046;4.854;2022-08-11T14:31:31;3.33;;;2.57;;
69678;SDS011;56915;52.046;4.854;2022-08-11T14:34:02;2.60;;;2.33;;
69678;SDS011;56915;52.046;4.854;2022-08-11T14:36:35;3.38;;;2.50;;
69678;SDS011;56915;52.046;4.854;2022-08-11T14:39:08;2.38;;;2.10;;
69678;SDS011;56915;52.046;4.854;2022-08-11T14:41:42;3.28;;;2.65;;
69678;SDS011;56915;52.046;4.854;2022-08-11T14:44:38;3.07;;;2.30;;
69678;SDS011;56915;52.046;4.854;2022-08-11T14:47:32;2.63;;;2.17;;
69678;SDS011;56915;52.046;4.854;2022-08-11T14:53:00;2.78;;;2.10;;
69678;SDS011;56915;52.046;4.854;2022-08-11T14:55:27;2.50;;;2.28;;
69678;SDS011;56915;52.046;4.854;2022-08-11T14:58:18;2.30;;;2.10;;
69678;SDS011;56915;52.046;4.854;2022-08-11T15:00:46;2.20;;;2.08;;
69678;SDS011;56915;52.046;4.854;2022-08-11T15:03:27;2.58;;;2.38;;
69678;SDS011;56915;52.046;4.854;2022-08-11T15:05:57;4.57;;;2.10;;
69678;SDS011;56915;52.046;4.854;2022-08-11T15:08:29;2.70;;;2.17;;
69678;SDS011;56915;52.046;4.854;2022-08-11T15:11:17;2.33;;;2.10;;
69678;SDS011;56915;52.046;4.854;2022-08-11T15:14:06;2.47;;;2.28;;
69678;SDS011;56915;52.046;4.854;2022-08-11T15:16:40;2.80;;;2.55;;
69678;SDS011;56915;52.046;4.854;2022-08-11T15:19:35;2.42;;;2.22;;
69678;SDS011;56915;52.046;4.854;2022-08-11T15:22:25;2.40;;;2.20;;
69678;SDS011;56915;52.046;4.854;2022-08-11T15:25:14;2.60;;;2.40;;
69678;SDS011;56915;52.046;4.854;2022-08-11T15:27:41;2.45;;;2.25;;
69678;SDS011;56915;52.046;4.854;2022-08-11T15:30:29;2.63;;;2.42;;
69678;SDS011;56915;52.046;4.854;2022-08-11T15:33:16;2.92;;;2.55;;
69678;SDS011;56915;52.046;4.854;2022-08-11T15:36:06;2.80;;;2.60;;
69678;SDS011;56915;52.046;4.854;2022-08-11T15:38:55;2.67;;;2.47;;
69678;SDS011;56915;52.046;4.854;2022-08-11T15:41:45;3.13;;;2.70;;
69678;SDS011;56915;52.046;4.854;2022-08-11T15:44:36;3.03;;;2.83;;
69678;SDS011;56915;52.046;4.854;2022-08-11T15:47:32;3.53;;;3.22;;
69678;SDS011;56915;52.046;4.854;2022-08-11T15:50:06;3.58;;;3.28;;
69678;SDS011;56915;52.046;4.854;2022-08-11T15:52:42;5.20;;;2.80;;
69678;SDS011;56915;52.046;4.854;2022-08-11T15:55:14;4.82;;;3.10;;
69678;SDS011;56915;52.046;4.854;2022-08-11T15:57:42;3.90;;;3.50;;
69678;SDS011;56915;52.046;4.854;2022-08-11T16:00:31;3.35;;;3.05;;
69678;SDS011;56915;52.046;4.854;2022-08-11T16:03:30;3.47;;;3.17;;
69678;SDS011;56915;52.046;4.854;2022-08-11T16:06:34;3.83;;;2.83;;
69678;SDS011;56915;52.046;4.854;2022-08-11T16:09:08;3.42;;;3.13;;
69678;SDS011;56915;52.046;4.854;2022-08-11T16:11:44;3.15;;;2.85;;
69678;SDS011;56915;52.046;4.854;2022-08-11T16:14:12;3.40;;;3.10;;
69678;SDS011;56915;52.046;4.854;2022-08-11T16:17:00;3.00;;;2.80;;
69678;SDS011;56915;52.046;4.854;2022-08-11T16:19:31;3.27;;;2.93;;
69678;SDS011;56915;52.046;4.854;2022-08-11T16:22:02;3.45;;;3.15;;
69678;SDS011;56915;52.046;4.854;2022-08-11T16:24:34;3.80;;;3.40;;
69678;SDS011;56915;52.046;4.854;2022-08-11T16:27:24;4.45;;;3.80;;
69678;SDS011;56915;52.046;4.854;2022-08-11T16:29:52;3.60;;;3.30;;
69678;SDS011;56915;52.046;4.854;2022-08-11T16:32:22;3.57;;;3.37;;
69678;SDS011;56915;52.046;4.854;2022-08-11T16:34:53;3.53;;;3.20;;
69678;SDS011;56915;52.046;4.854;2022-08-11T16:37:42;6.20;;;3.65;;
69678;SDS011;56915;52.046;4.854;2022-08-11T16:40:29;3.10;;;2.90;;
69678;SDS011;56915;52.046;4.854;2022-08-11T16:42:57;3.67;;;3.40;;
69678;SDS011;56915;52.046;4.854;2022-08-11T16:45:44;3.57;;;3.27;;
69678;SDS011;56915;52.046;4.854;2022-08-11T16:48:34;3.40;;;3.10;;
69678;SDS011;56915;52.046;4.854;2022-08-11T16:51:05;3.95;;;3.60;;
69678;SDS011;56915;52.046;4.854;2022-08-11T16:53:34;3.20;;;3.00;;
69678;SDS011;56915;52.046;4.854;2022-08-11T16:56:37;4.85;;;3.60;;
69678;SDS011;56915;52.046;4.854;2022-08-11T16:59:09;3.60;;;3.30;;
69678;SDS011;56915;52.046;4.854;2022-08-11T17:04:27;3.13;;;2.83;;
69678;SDS011;56915;52.046;4.854;2022-08-11T17:07:25;3.83;;;2.95;;
69678;SDS011;56915;52.046;4.854;2022-08-11T17:10:34;3.25;;;3.05;;
69678;SDS011;56915;52.046;4.854;2022-08-11T17:13:51;5.40;;;2.77;;
69678;SDS011;56915;52.046;4.854;2022-08-11T17:16:27;5.93;;;2.55;;
69678;SDS011;56915;52.046;4.854;2022-08-11T17:19:23;3.63;;;2.80;;
69678;SDS011;56915;52.046;4.854;2022-08-11T17:22:12;2.65;;;2.45;;
69678;SDS011;56915;52.046;4.854;2022-08-11T17:24:57;2.83;;;2.60;;
69678;SDS011;56915;52.046;4.854;2022-08-11T17:27:26;3.07;;;2.83;;
69678;SDS011;56915;52.046;4.854;2022-08-11T17:29:55;6.18;;;2.60;;
69678;SDS011;56915;52.046;4.854;2022-08-11T17:32:46;3.03;;;2.70;;
69678;SDS011;56915;52.046;4.854;2022-08-11T17:35:46;2.65;;;2.45;;
69678;SDS011;56915;52.046;4.854;2022-08-11T17:38:18;2.80;;;2.60;;
69678;SDS011;56915;52.046;4.854;2022-08-11T17:40:48;3.40;;;2.40;;
69678;SDS011;56915;52.046;4.854;2022-08-11T17:43:48;2.65;;;2.40;;
69678;SDS011;56915;52.046;4.854;2022-08-11T17:46:35;2.90;;;2.70;;
69678;SDS011;56915;52.046;4.854;2022-08-11T17:49:28;3.10;;;2.70;;
69678;SDS011;56915;52.046;4.854;2022-08-11T17:52:04;2.70;;;2.50;;
69678;SDS011;56915;52.046;4.854;2022-08-11T17:54:51;2.67;;;2.47;;
69678;SDS011;56915;52.046;4.854;2022-08-11T17:57:38;2.63;;;2.40;;
69678;SDS011;56915;52.046;4.854;2022-08-11T18:00:25;3.38;;;2.50;;
69678;SDS011;56915;52.046;4.854;2022-08-11T18:02:53;4.07;;;2.40;;
69678;SDS011;56915;52.046;4.854;2022-08-11T18:05:42;2.92;;;2.72;;
69678;SDS011;56915;52.046;4.854;2022-08-11T18:08:11;2.67;;;2.47;;
69678;SDS011;56915;52.046;4.854;2022-08-11T18:10:57;2.67;;;2.47;;
69678;SDS011;56915;52.046;4.854;2022-08-11T18:14:05;3.97;;;2.60;;
69678;SDS011;56915;52.046;4.854;2022-08-11T18:16:52;3.08;;;2.60;;
69678;SDS011;56915;52.046;4.854;2022-08-11T18:19:38;2.72;;;2.50;;
69678;SDS011;56915;52.046;4.854;2022-08-11T18:22:25;2.47;;;2.27;;
69678;SDS011;56915;52.046;4.854;2022-08-11T18:25:18;2.65;;;2.40;;
69678;SDS011;56915;52.046;4.854;2022-08-11T18:28:11;2.67;;;2.47;;
69678;SDS011;56915;52.046;4.854;2022-08-11T18:30:58;3.35;;;2.53;;
69678;SDS011;56915;52.046;4.854;2022-08-11T18:33:55;3.00;;;2.40;;
69678;SDS011;56915;52.046;4.854;2022-08-11T18:37:02;2.90;;;2.37;;
69678;SDS011;56915;52.046;4.854;2022-08-11T18:40:08;3.10;;;2.38;;
69678;SDS011;56915;52.046;4.854;2022-08-11T18:42:59;3.45;;;2.40;;
69678;SDS011;56915;52.046;4.854;2022-08-11T18:45:52;2.75;;;2.30;;
69678;SDS011;56915;52.046;4.854;2022-08-11T18:48:47;3.33;;;2.40;;
69678;SDS011;56915;52.046;4.854;2022-08-11T18:51:41;2.67;;;2.03;;
69678;SDS011;56915;52.046;4.854;2022-08-11T18:54:30;3.10;;;2.20;;
69678;SDS011;56915;52.046;4.854;2022-08-11T18:57:20;2.40;;;2.10;;
69678;SDS011;56915;52.046;4.854;2022-08-11T19:00:19;3.28;;;2.20;;
69678;SDS011;56915;52.046;4.854;2022-08-11T19:03:06;2.63;;;2.30;;
69678;SDS011;56915;52.046;4.854;2022-08-11T19:05:55;3.30;;;2.30;;
69678;SDS011;56915;52.046;4.854;2022-08-11T19:09:05;4.72;;;2.40;;
69678;SDS011;56915;52.046;4.854;2022-08-11T19:11:53;4.57;;;2.28;;
69678;SDS011;56915;52.046;4.854;2022-08-11T19:14:49;2.38;;;2.17;;
69678;SDS011;56915;52.046;4.854;2022-08-11T19:17:39;2.85;;;2.20;;
69678;SDS011;56915;52.046;4.854;2022-08-11T19:20:27;2.33;;;2.10;;
69678;SDS011;56915;52.046;4.854;2022-08-11T19:23:16;2.63;;;2.38;;
69678;SDS011;56915;52.046;4.854;2022-08-11T19:26:09;3.08;;;2.33;;
69678;SDS011;56915;52.046;4.854;2022-08-11T19:28:54;2.75;;;2.30;;
69678;SDS011;56915;52.046;4.854;2022-08-11T19:32:01;6.45;;;2.45;;
69678;SDS011;56915;52.046;4.854;2022-08-11T19:34:47;2.80;;;2.47;;
69678;SDS011;56915;52.046;4.854;2022-08-11T19:37:34;3.45;;;2.38;;
69678;SDS011;56915;52.046;4.854;2022-08-11T19:40:20;3.20;;;2.47;;
69678;SDS011;56915;52.046;4.854;2022-08-11T19:43:06;3.38;;;2.60;;
69678;SDS011;56915;52.046;4.854;2022-08-11T19:45:56;2.80;;;2.38;;
69678;SDS011;56915;52.046;4.854;2022-08-11T19:48:57;3.93;;;2.23;;
69678;SDS011;56915;52.046;4.854;2022-08-11T19:51:43;3.42;;;2.45;;
69678;SDS011;56915;52.046;4.854;2022-08-11T19:54:32;4.68;;;2.40;;
69678;SDS011;56915;52.046;4.854;2022-08-11T19:57:19;3.58;;;2.50;;
69678;SDS011;56915;52.046;4.854;2022-08-11T20:00:15;5.22;;;2.65;;
69678;SDS011;56915;52.046;4.854;2022-08-11T20:03:08;3.53;;;2.93;;
69678;SDS011;56915;52.046;4.854;2022-08-11T20:05:56;5.75;;;2.60;;
69678;SDS011;56915;52.046;4.854;2022-08-11T20:08:46;6.53;;;2.85;;
69678;SDS011;56915;52.046;4.854;2022-08-11T20:11:44;3.58;;;2.60;;
69678;SDS011;56915;52.046;4.854;2022-08-11T20:14:33;4.28;;;2.63;;
69678;SDS011;56915;52.046;4.854;2022-08-11T20:17:23;5.57;;;2.50;;
69678;SDS011;56915;52.046;4.854;2022-08-11T20:20:10;8.00;;;2.80;;